Wednesday, June 20, 2018, 5:19 PM EDT
Back to Local

KACY, Atlantic City International

Location: Absecon, NJ, United States Lat: 39.467
Local Time: 5:19 PM EDT (21:19 GMT) Lon: -74.583
Time Zone: US/Eastern Elev: 75 ft

Show me the last for .
Show Decoded

2018-06-20 16:54 METAR KACY 202054Z 15010KT 10SM CLR 27/19 A2980 RMK AO2 SLP091 T02720194 58013 =
2018-06-20 15:54 METAR KACY 201954Z 19007KT 10SM OVC060 27/16 A2983 RMK AO2 SLP099 T02720156 =
2018-06-20 14:54 METAR KACY 201854Z 19013G19KT 10SM BKN065 28/15 A2983 RMK AO2 SLP101 T02830150 =
2018-06-20 13:54 METAR KACY 201754Z 16011G18KT 10SM CLR 29/17 A2984 RMK AO2 SLP104 T02890172
                 10289 20222 58016 =
2018-06-20 12:54 METAR KACY 201654Z 17011G18KT 10SM CLR 28/18 A2986 RMK AO2 SLP111 T02780183 =
2018-06-20 11:54 METAR KACY 201554Z 16010G17KT 10SM SCT028 27/19 A2988 RMK AO2 SLP116 T02720194 =
2018-06-20 11:04 METAR KACY 201504Z 15008KT 10SM SCT025 27/21 A2989 RMK AO2 T02720206 =
2018-06-20 10:54 METAR KACY 201454Z 16005KT 10SM BKN025 27/21 A2989 RMK AO2 SLP119 T02720206
                 58000 =
2018-06-20 09:54 METAR KACY 201354Z 17005KT 10SM CLR 27/21 A2989 RMK AO2 SLP120 T02670211 =
2018-06-20 08:54 METAR KACY 201254Z 08004KT 10SM CLR 24/22 A2989 RMK AO2 SLP121 T02440222 =
2018-06-20 07:54 METAR KACY 201154Z 11004KT 7SM CLR 22/21 A2989 RMK AO2 SLP120 T02220211 10222
                 20178 51008 =
2018-06-20 06:54 METAR KACY 201054Z 00000KT 10SM SCT070 20/19 A2988 RMK AO2 SLP118 T02000194 =
2018-06-20 05:54 METAR KACY 200954Z 00000KT 10SM FEW065 18/17 A2987 RMK AO2 SLP114 T01780172 =
2018-06-20 04:54 METAR KACY 200854Z 00000KT 10SM CLR 19/18 A2986 RMK AO2 SLP111 T01940178 55001 =
2018-06-20 03:54 METAR KACY 200754Z 00000KT 10SM FEW041 19/18 A2986 RMK AO2 SLP111 T01940183 =
2018-06-20 02:54 METAR KACY 200654Z 00000KT 10SM CLR 21/20 A2986 RMK AO2 SLP112 T02060200 =
2018-06-20 01:54 METAR KACY 200554Z 00000KT 10SM CLR 19/19 A2987 RMK AO2 SLP112 T01940189 10267
                 20194 53002 =
2018-06-20 00:54 METAR KACY 200454Z 00000KT 10SM CLR 20/19 A2986 RMK AO2 SLP110 T02000189
                 403280194 =
2018-06-19 23:54 METAR KACY 200354Z 00000KT 10SM CLR 20/19 A2986 RMK AO2 SLP111 T02000189 =
2018-06-19 22:54 METAR KACY 200254Z 00000KT 10SM CLR 22/20 A2986 RMK AO2 SLP110 T02170200 50010 =
2018-06-19 21:54 METAR KACY 200154Z 00000KT 10SM CLR 23/21 A2987 RMK AO2 SLP112 T02330206 =
2018-06-19 20:54 METAR KACY 200054Z 18005KT 10SM CLR 25/21 A2985 RMK AO2 SLP108 T02500211 =
2018-06-19 19:54 METAR KACY 192354Z 11004KT 10SM CLR 26/22 A2983 RMK AO2 SLP100 T02610217 10328
                 20261 53013 =
2018-06-19 18:54 METAR KACY 192254Z 13008KT 10SM CLR 28/22 A2982 RMK AO2 SLP095 T02780217 =
2018-06-19 17:54 METAR KACY 192154Z 09010KT 10SM CLR 28/22 A2980 RMK AO2 SLP089 T02830222 =

Support USWX by starting your Amazon purchase here.